Time;durP1;ratioP1;P1;durP2;ratioP2;P2;SDS_P1;SDS_P2;PMS_P1;PMS_P2;Temp;Humidity;BMP_temperature;BMP_pressure;BME280_temperature;BME280_humidity;BME280_pressure;Samples;Min_cycle;Max_cycle;Signal;HPM_P1;HPM_P2
2022/10/19 00:01:02;;;;;;;15.75;9.32;;;;;;;7.76;100.00;103027.53;5069166;28;20028;-61
2022/10/19 00:03:28;;;;;;;22.90;9.55;;;;;;;7.77;100.00;103024.94;5068863;28;20016;-65
2022/10/19 00:05:53;;;;;;;15.88;8.32;;;;;;;7.76;100.00;103022.28;5068627;28;20063;-66
2022/10/19 00:08:18;;;;;;;16.42;9.10;;;;;;;7.75;100.00;103020.53;5067683;28;20702;-67
2022/10/19 00:10:43;;;;;;;23.83;9.82;;;;;;;7.77;100.00;103022.31;5068997;28;20048;-63
2022/10/19 00:13:09;;;;;;;17.90;9.57;;;;;;;7.79;100.00;103015.34;5067082;28;20048;-66
2022/10/19 00:15:39;;;;;;;21.08;9.95;;;;;;;7.76;100.00;103028.44;5069065;28;20647;-67
2022/10/19 00:18:04;;;;;;;24.73;10.30;;;;;;;7.75;100.00;103023.16;5068964;28;20099;-67
2022/10/19 00:20:29;;;;;;;23.05;10.43;;;;;;;7.74;100.00;103024.94;5068284;28;20170;-67
2022/10/19 00:22:55;;;;;;;18.15;10.25;;;;;;;7.72;100.00;103026.66;5068517;28;20072;-67
2022/10/19 00:25:20;;;;;;;18.92;10.68;;;;;;;7.70;100.00;103023.09;5068107;28;20032;-63
2022/10/19 00:27:45;;;;;;;19.15;9.85;;;;;;;7.67;100.00;103023.06;5063741;28;20111;-67
2022/10/19 00:30:11;;;;;;;21.27;11.52;;;;;;;7.67;100.00;103028.31;5066017;28;20471;-68
2022/10/19 00:32:36;;;;;;;20.65;11.00;;;;;;;7.66;100.00;103031.81;5067520;28;20029;-67
2022/10/19 00:35:02;;;;;;;20.98;10.75;;;;;;;7.69;100.00;103026.59;5068225;28;20475;-63
2022/10/19 00:37:28;;;;;;;25.98;12.52;;;;;;;7.71;100.00;103024.88;5068158;28;20024;-64
2022/10/19 00:39:54;;;;;;;27.25;13.63;;;;;;;7.70;100.00;103028.34;5068340;28;20031;-63
2022/10/19 00:42:19;;;;;;;27.75;12.18;;;;;;;7.69;100.00;103030.13;5067756;28;20020;-67
2022/10/19 00:44:47;;;;;;;25.58;12.15;;;;;;;7.68;100.00;103025.72;5067022;28;20024;-66
2022/10/19 00:47:13;;;;;;;18.08;10.77;;;;;;;7.65;100.00;103025.66;5068020;28;20024;-67
2022/10/19 00:49:41;;;;;;;25.35;11.93;;;;;;;7.65;100.00;103025.66;5066847;28;20725;-62
2022/10/19 00:52:11;;;;;;;32.47;12.47;;;;;;;7.64;100.00;103025.63;5048621;28;20028;-65
2022/10/19 00:54:38;;;;;;;25.42;12.30;;;;;;;7.58;100.00;103029.97;5067286;28;20063;-63
2022/10/19 00:57:04;;;;;;;22.27;12.30;;;;;;;7.54;100.00;103036.03;5050503;28;20082;-61
2022/10/19 00:59:30;;;;;;;23.02;12.23;;;;;;;7.53;100.00;103036.88;5067580;28;20032;-67
2022/10/19 01:01:56;;;;;;;27.25;12.00;;;;;;;7.51;100.00;103041.22;5050065;28;20033;-67
2022/10/19 01:04:24;;;;;;;26.13;12.43;;;;;;;7.49;100.00;103040.31;5068377;28;20501;-67
2022/10/19 01:06:49;;;;;;;25.27;14.25;;;;;;;7.50;100.00;103025.47;5049720;28;20055;-64
2022/10/19 01:09:14;;;;;;;27.00;14.82;;;;;;;7.49;100.00;103019.31;5050036;28;20036;-64
2022/10/19 01:12:08;;;;;;;18.98;12.30;;;;;;;7.51;100.00;103025.50;5067844;28;20048;-67
2022/10/19 01:14:57;;;;;;;22.02;12.48;;;;;;;7.52;100.00;103019.38;5067602;28;20033;-63
2022/10/19 01:18:11;;;;;;;28.15;13.98;;;;;;;7.56;100.00;103021.16;5065299;28;20028;-64
2022/10/19 01:20:37;;;;;;;20.25;13.57;;;;;;;7.58;100.00;103016.84;4985162;28;20037;-67
2022/10/19 01:23:17;;;;;;;28.48;14.88;;;;;;;7.65;100.00;103016.94;5039000;28;20032;-64
2022/10/19 01:25:48;;;;;;;28.80;15.70;;;;;;;7.68;100.00;103017.84;5067238;28;20390;-68
2022/10/19 01:28:47;;;;;;;26.75;13.77;;;;;;;7.70;100.00;103005.63;5067012;28;20054;-69
2022/10/19 01:31:21;;;;;;;;;;;;;;;7.75;100.00;103010.94;5068317;28;20133;-61
2022/10/19 01:34:08;;;;;;;21.00;14.05;;;;;;;7.80;100.00;103008.38;5067700;28;19934;-65
2022/10/19 01:36:49;;;;;;;119.78;18.05;;;;;;;7.77;100.00;103006.56;5068273;28;20025;-67
2022/10/19 01:39:25;;;;;;;150.85;19.83;;;;;;;7.71;100.00;103003.91;5049784;28;20337;-68
2022/10/19 01:42:02;;;;;;;152.82;17.77;;;;;;;7.70;100.00;103007.34;5050143;28;20028;-68
2022/10/19 01:44:36;;;;;;;45.00;13.95;;;;;;;7.65;100.00;103003.81;5048716;28;20024;-66
2022/10/19 01:47:09;;;;;;;32.20;13.32;;;;;;;7.62;100.00;102998.53;5048912;28;20041;-66
2022/10/19 01:49:41;;;;;;;32.03;12.52;;;;;;;7.57;100.00;102996.72;5051729;28;20474;-70
2022/10/19 01:52:10;;;;;;;42.90;12.55;;;;;;;7.53;100.00;102989.66;5053142;28;20029;-62
2022/10/19 01:54:41;;;;;;;14.13;9.65;;;;;;;7.54;100.00;102988.81;5053736;28;20020;-65
2022/10/19 01:57:08;;;;;;;12.50;9.48;;;;;;;7.52;100.00;102997.50;5053911;28;20060;-65
2022/10/19 01:59:35;;;;;;;14.45;10.70;;;;;;;7.42;100.00;103001.75;5052695;28;20033;-66
2022/10/19 02:02:02;;;;;;;14.27;9.98;;;;;;;7.36;100.00;103001.66;5054036;28;20028;-66
2022/10/19 02:04:28;;;;;;;12.18;9.30;;;;;;;7.29;100.00;103011.19;5053171;28;20028;-65
2022/10/19 02:06:54;;;;;;;11.77;9.18;;;;;;;7.23;100.00;103009.34;5052565;28;20051;-66
2022/10/19 02:09:19;;;;;;;10.80;8.82;;;;;;;7.14;100.00;103007.47;5070621;28;20025;-65
2022/10/19 02:11:51;;;;;;;15.52;9.63;;;;;;;7.07;100.00;103009.09;5070941;28;20195;-65
2022/10/19 02:14:18;;;;;;;14.45;9.88;;;;;;;7.02;100.00;103013.41;5050797;28;20076;-65
2022/10/19 02:16:51;;;;;;;14.95;8.93;;;;;;;7.03;100.00;103016.88;5053303;28;20021;-66
2022/10/19 02:19:17;;;;;;;15.20;10.18;;;;;;;6.97;100.00;102998.44;5051988;28;20027;-67
2022/10/19 02:21:42;;;;;;;14.20;9.45;;;;;;;6.91;100.00;102997.50;5052867;28;20105;-66
2022/10/19 02:24:08;;;;;;;11.80;8.65;;;;;;;6.85;100.00;102991.25;5070604;28;20101;-61
2022/10/19 02:26:33;;;;;;;13.70;10.50;;;;;;;6.79;100.00;102985.06;5071627;28;20027;-65
2022/10/19 02:28:58;;;;;;;12.02;8.45;;;;;;;6.76;100.00;102985.03;5070078;28;20085;-66
2022/10/19 02:31:24;;;;;;;11.75;9.48;;;;;;;6.72;100.00;102980.59;5052917;28;20029;-59
2022/10/19 02:33:50;;;;;;;18.83;10.55;;;;;;;6.71;100.00;102984.03;5052728;28;20063;-65
2022/10/19 02:36:17;;;;;;;12.20;9.13;;;;;;;6.67;100.00;102969.13;5070346;28;20032;-65
2022/10/19 02:38:42;;;;;;;14.50;9.48;;;;;;;6.63;100.00;102969.94;5052483;28;20029;-65
2022/10/19 02:41:22;;;;;;;10.85;9.65;;;;;;;6.63;100.00;102973.47;5052619;28;20527;-63
2022/10/19 02:43:49;;;;;;;14.52;10.02;;;;;;;6.60;100.00;102973.41;5047048;28;20570;-64
2022/10/19 02:46:24;;;;;;;21.88;11.82;;;;;;;6.57;100.00;102968.97;5051397;28;20414;-65
2022/10/19 02:48:50;;;;;;;14.77;10.07;;;;;;;6.59;100.00;102960.28;5051364;28;20039;-64
2022/10/19 02:51:32;;;;;;;16.98;10.05;;;;;;;6.59;100.00;102966.38;5070401;28;20399;-64
2022/10/19 02:53:58;;;;;;;17.45;10.23;;;;;;;6.60;100.00;102967.28;5070140;28;20036;-65
2022/10/19 02:56:23;;;;;;;16.88;11.05;;;;;;;6.56;100.00;102967.22;5070682;28;20078;-66
2022/10/19 02:58:48;;;;;;;20.52;11.93;;;;;;;6.55;100.00;102962.84;5069594;28;20432;-65
2022/10/19 03:01:14;;;;;;;16.17;11.07;;;;;;;6.52;100.00;102956.66;5068668;28;20056;-62
2022/10/19 03:03:39;;;;;;;16.70;10.23;;;;;;;6.48;100.00;102958.34;5070568;28;20016;-66
2022/10/19 03:06:04;;;;;;;15.77;10.45;;;;;;;6.42;100.00;102958.25;5069726;28;20533;-62
2022/10/19 03:08:30;;;;;;;18.73;10.88;;;;;;;6.46;100.00;102949.56;5052353;28;20527;-66
2022/10/19 03:10:57;;;;;;;21.33;11.43;;;;;;;6.42;100.00;102958.25;5050178;28;20029;-65
2022/10/19 03:13:23;;;;;;;15.80;10.70;;;;;;;6.39;100.00;102958.19;5049338;28;20032;-65
2022/10/19 03:15:49;;;;;;;18.30;9.90;;;;;;;6.36;100.00;102963.38;5050532;28;20029;-61
2022/10/19 03:18:14;;;;;;;16.67;10.15;;;;;;;6.35;100.00;102959.84;5050228;28;20526;-66
2022/10/19 03:20:39;;;;;;;14.10;10.77;;;;;;;6.31;100.00;102956.31;5050084;28;20029;-65
2022/10/19 03:23:05;;;;;;;16.90;10.77;;;;;;;6.28;100.00;102958.88;5050081;28;20063;-63
2022/10/19 03:25:30;;;;;;;17.75;10.98;;;;;;;6.26;100.00;102954.47;5032970;28;20029;-65
2022/10/19 03:27:55;;;;;;;19.33;10.45;;;;;;;6.25;100.00;102965.78;5049602;28;20035;-65
2022/10/19 03:30:21;;;;;;;14.57;10.10;;;;;;;6.22;100.00;102961.38;5050270;28;20040;-66
2022/10/19 03:32:46;;;;;;;15.15;10.20;;;;;;;6.20;100.00;102963.06;5050103;28;20028;-62
2022/10/19 03:35:11;;;;;;;16.48;10.57;;;;;;;6.18;100.00;102964.78;5049425;28;20022;-65
2022/10/19 03:37:37;;;;;;;15.93;9.93;;;;;;;6.18;100.00;102954.31;5049788;28;20029;-61
2022/10/19 03:40:02;;;;;;;15.00;8.98;;;;;;;6.15;100.00;102954.25;5049445;28;20028;-64
2022/10/19 03:42:28;;;;;;;14.15;10.52;;;;;;;6.13;100.00;102951.63;5046161;28;20670;-62
2022/10/19 03:44:53;;;;;;;16.48;10.68;;;;;;;6.12;100.00;102955.09;5068031;28;20028;-64
2022/10/19 03:47:18;;;;;;;11.40;9.35;;;;;;;6.14;100.00;102952.50;5067950;28;20367;-65
2022/10/19 03:49:44;;;;;;;12.90;8.90;;;;;;;6.11;100.00;102945.47;5069304;28;20108;-64
2022/10/19 03:52:09;;;;;;;15.35;9.25;;;;;;;6.12;100.00;102943.72;5050097;28;20029;-64
2022/10/19 03:54:35;;;;;;;18.27;10.50;;;;;;;6.12;100.00;102946.34;5067975;28;20032;-63
2022/10/19 03:57:00;;;;;;;14.93;9.45;;;;;;;6.11;100.00;102953.31;5069281;28;20032;-67
2022/10/19 03:59:25;;;;;;;13.82;9.75;;;;;;;6.11;100.00;102942.84;5050382;28;20044;-65
2022/10/19 04:01:51;;;;;;;18.08;10.13;;;;;;;6.11;100.00;102942.84;5069040;28;20028;-64
2022/10/19 04:04:18;;;;;;;13.80;8.13;;;;;;;6.09;100.00;102949.81;5051238;28;20032;-66
2022/10/19 04:06:45;;;;;;;12.32;8.27;;;;;;;6.11;100.00;102948.06;5068417;28;20086;-65
2022/10/19 04:09:13;;;;;;;18.75;9.57;;;;;;;6.12;100.00;102944.63;5068919;28;20107;-65
2022/10/19 04:11:39;;;;;;;18.23;9.43;;;;;;;6.14;100.00;102949.91;5068003;28;20020;-64
2022/10/19 04:14:04;;;;;;;12.85;8.70;;;;;;;6.12;100.00;102947.25;5068394;28;20557;-62
2022/10/19 04:16:30;;;;;;;14.52;8.68;;;;;;;6.13;100.00;102932.41;5068739;28;20059;-64
2022/10/19 04:18:56;;;;;;;18.33;10.55;;;;;;;6.12;100.00;102948.97;5068691;28;20032;-66
2022/10/19 04:21:28;;;;;;;20.13;9.73;;;;;;;6.10;100.00;102945.44;5068380;28;20036;-59
2022/10/19 04:24:09;;;;;;;10.85;8.15;;;;;;;6.04;100.00;102941.84;5068996;28;20123;-64
2022/10/19 04:26:39;;;;;;;13.10;7.78;;;;;;;6.00;100.00;102934.78;5064898;28;20033;-60
2022/10/19 04:29:05;;;;;;;18.83;9.35;;;;;;;6.02;100.00;102940.03;5059363;28;20036;-62
2022/10/19 04:31:30;;;;;;;16.65;8.77;;;;;;;6.00;100.00;102934.78;5067863;28;20016;-66
2022/10/19 04:33:56;;;;;;;14.70;8.45;;;;;;;6.02;100.00;102937.41;5059254;28;20033;-65
2022/10/19 04:36:22;;;;;;;12.02;8.18;;;;;;;5.99;100.00;102932.97;5060623;28;20487;-65
2022/10/19 04:38:47;;;;;;;12.63;7.68;;;;;;;5.96;100.00;102930.31;5054129;28;20099;-63
2022/10/19 04:41:15;;;;;;;14.98;8.55;;;;;;;5.98;100.00;102931.22;5058074;28;20017;-65
2022/10/19 04:43:40;;;;;;;16.45;9.25;;;;;;;5.99;100.00;102938.22;5062017;28;20047;-65
2022/10/19 04:46:11;;;;;;;13.88;7.90;;;;;;;6.01;100.00;102940.88;5061427;28;20081;-65
2022/10/19 04:48:37;;;;;;;15.65;8.85;;;;;;;5.99;100.00;102943.44;5057502;28;20028;-67
2022/10/19 04:51:04;;;;;;;16.30;8.80;;;;;;;6.01;100.00;102940.88;5047556;28;20040;-65
2022/10/19 04:53:30;;;;;;;16.60;9.55;;;;;;;6.00;100.00;102945.25;5047784;28;20029;-64
2022/10/19 04:55:55;;;;;;;18.60;8.75;;;;;;;5.96;100.00;102938.16;5061900;28;20040;-66
2022/10/19 04:58:20;;;;;;;14.05;8.02;;;;;;;5.95;100.00;102941.63;5066871;28;20536;-66
2022/10/19 05:00:46;;;;;;;16.85;8.30;;;;;;;5.91;100.00;102937.22;5065509;28;20489;-62
2022/10/19 05:03:11;;;;;;;11.70;8.10;;;;;;;5.91;100.00;102938.09;5067796;28;20096;-61
2022/10/19 05:05:36;;;;;;;14.63;8.82;;;;;;;5.90;100.00;102943.31;5067270;28;20051;-64
2022/10/19 05:08:02;;;;;;;17.73;8.20;;;;;;;5.89;100.00;102941.50;5068087;28;20028;-63
2022/10/19 05:10:27;;;;;;;14.93;8.70;;;;;;;5.88;100.00;102939.75;5048368;28;20352;-64
2022/10/19 05:12:52;;;;;;;15.38;8.52;;;;;;;5.87;100.00;102940.63;5046923;28;20035;-61
2022/10/19 05:15:18;;;;;;;13.40;8.48;;;;;;;5.87;100.00;102940.63;5048093;28;20054;-64
2022/10/19 05:17:43;;;;;;;14.48;8.05;;;;;;;5.85;100.00;102937.06;5048308;28;20033;-63
2022/10/19 05:20:10;;;;;;;15.10;8.43;;;;;;;5.83;100.00;102937.03;5029855;28;20403;-64
2022/10/19 05:22:38;;;;;;;14.32;9.27;;;;;;;5.81;100.00;102934.41;5049767;28;20035;-61
2022/10/19 05:25:05;;;;;;;14.73;8.50;;;;;;;5.77;100.00;102940.44;5067784;28;20021;-63
2022/10/19 05:27:30;;;;;;;16.42;8.82;;;;;;;5.75;100.00;102926.41;5050002;28;20028;-65
2022/10/19 05:29:55;;;;;;;13.95;7.72;;;;;;;5.76;100.00;102925.59;5068133;28;20025;-65
2022/10/19 05:32:21;;;;;;;19.95;8.10;;;;;;;5.76;100.00;102922.97;5067504;28;20099;-65
2022/10/19 05:34:46;;;;;;;11.02;7.43;;;;;;;5.77;100.00;102926.44;5068371;28;20103;-64
2022/10/19 05:37:11;;;;;;;16.55;8.43;;;;;;;5.75;100.00;102930.78;5068179;28;20017;-64
2022/10/19 05:39:37;;;;;;;13.55;7.85;;;;;;;5.74;100.00;102934.25;5050041;28;20055;-65
2022/10/19 05:42:02;;;;;;;16.42;7.63;;;;;;;5.71;100.00;102932.44;5069123;28;20024;-65
2022/10/19 05:44:28;;;;;;;15.43;7.50;;;;;;;5.72;100.00;102936.81;5067322;28;20048;-66
2022/10/19 05:46:53;;;;;;;9.90;7.18;;;;;;;5.74;100.00;102939.47;5068113;28;20115;-68
2022/10/19 05:49:20;;;;;;;24.17;7.97;;;;;;;5.76;100.00;102929.94;5041806;28;20040;-64
2022/10/19 05:51:45;;;;;;;14.82;6.72;;;;;;;5.76;100.00;102929.94;5067325;28;20040;-65
2022/10/19 05:54:12;;;;;;;10.95;6.82;;;;;;;5.78;100.00;102923.88;5066796;28;20496;-63
2022/10/19 05:56:38;;;;;;;12.65;7.60;;;;;;;5.78;100.00;102929.09;5047574;28;20471;-66
2022/10/19 05:59:05;;;;;;;20.58;6.85;;;;;;;5.75;100.00;102926.41;5046058;28;20120;-63
2022/10/19 06:01:32;;;;;;;12.95;7.07;;;;;;;5.74;100.00;102924.66;5046981;28;20033;-66
2022/10/19 06:03:58;;;;;;;22.10;8.90;;;;;;;5.77;100.00;102909.03;5050727;28;20056;-65
2022/10/19 06:06:24;;;;;;;15.07;7.22;;;;;;;5.80;100.00;102906.47;5066523;28;20901;-65
2022/10/19 06:08:50;;;;;;;17.88;7.20;;;;;;;5.80;100.00;102906.47;5065242;28;20016;-62
2022/10/19 06:11:25;;;;;;;11.48;6.32;;;;;;;5.79;100.00;102909.97;5066341;28;20036;-60
2022/10/19 06:13:53;;;;;;;12.90;6.20;;;;;;;5.80;100.00;102908.19;5064045;28;20020;-65
2022/10/19 06:16:19;;;;;;;12.80;7.05;;;;;;;5.81;100.00;102908.22;5066488;28;20017;-65
2022/10/19 06:18:45;;;;;;;17.40;7.45;;;;;;;5.86;100.00;102913.56;5066421;28;20024;-62
2022/10/19 06:21:13;;;;;;;16.48;6.90;;;;;;;5.91;100.00;102913.66;5066328;28;20074;-65
2022/10/19 06:23:38;;;;;;;16.00;8.27;;;;;;;5.97;100.00;102907.66;5066561;28;20429;-64
2022/10/19 06:26:06;;;;;;;21.33;8.35;;;;;;;6.00;100.00;102903.38;5066395;28;20025;-61
2022/10/19 06:28:31;;;;;;;20.33;7.63;;;;;;;6.05;100.00;102903.50;5066344;28;20541;-64
2022/10/19 06:30:57;;;;;;;13.82;7.88;;;;;;;6.09;100.00;102905.31;5066538;28;20198;-66
2022/10/19 06:33:23;;;;;;;14.60;8.73;;;;;;;6.12;100.00;102901.84;5048413;28;20025;-65
2022/10/19 06:35:48;;;;;;;17.10;9.43;;;;;;;6.17;100.00;102898.47;5067778;28;20039;-64
2022/10/19 06:38:13;;;;;;;25.30;9.93;;;;;;;6.18;100.00;102899.34;5065586;28;20037;-65
2022/10/19 06:40:39;;;;;;;17.00;9.20;;;;;;;6.26;100.00;102905.59;5069002;28;20056;-63
2022/10/19 06:43:04;;;;;;;17.80;9.02;;;;;;;6.29;100.00;102905.66;5066708;28;20035;-61
2022/10/19 06:45:29;;;;;;;17.98;8.90;;;;;;;6.31;100.00;102914.41;5069505;28;20039;-65
2022/10/19 06:47:55;;;;;;;20.23;9.57;;;;;;;6.34;100.00;102902.22;5069494;28;20029;-66
2022/10/19 06:50:20;;;;;;;19.15;9.18;;;;;;;6.39;100.00;102911.94;5069319;28;20023;-66
2022/10/19 06:52:46;;;;;;;20.63;9.50;;;;;;;6.47;100.00;102908.56;5069030;28;20099;-61
2022/10/19 06:55:11;;;;;;;16.30;8.63;;;;;;;6.51;100.00;102919.13;5069032;28;20069;-66
2022/10/19 06:57:37;;;;;;;20.45;9.73;;;;;;;6.59;100.00;102913.13;5057061;28;20090;-63
2022/10/19 07:00:03;;;;;;;17.88;9.23;;;;;;;6.60;100.00;102920.13;5049903;28;20044;-64
2022/10/19 07:02:29;;;;;;;16.58;8.88;;;;;;;6.65;100.00;102913.22;5048119;28;20063;-64
2022/10/19 07:04:54;;;;;;;15.77;9.23;;;;;;;6.72;100.00;102915.09;5048477;28;20108;-67
2022/10/19 07:07:19;;;;;;;17.88;10.55;;;;;;;6.73;100.00;102903.75;5049353;28;20344;-63
2022/10/19 07:09:47;;;;;;;17.88;9.18;;;;;;;6.76;100.00;102898.56;5066445;28;20575;-64
2022/10/19 07:12:12;;;;;;;20.95;10.55;;;;;;;6.81;100.00;102899.47;5067879;28;20035;-59
2022/10/19 07:14:38;;;;;;;18.55;9.77;;;;;;;6.82;100.00;102893.41;5068833;28;20013;-61
2022/10/19 07:17:07;;;;;;;21.27;9.70;;;;;;;6.85;100.00;102894.28;5069446;28;20032;-61
2022/10/19 07:19:33;;;;;;;17.52;10.02;;;;;;;6.87;100.00;102887.34;5051859;28;20090;-65
2022/10/19 07:21:58;;;;;;;24.67;12.45;;;;;;;6.93;100.00;102895.31;5063544;28;20029;-68
2022/10/19 07:24:24;;;;;;;15.70;9.25;;;;;;;7.00;100.00;102896.25;5069140;28;20016;-64
2022/10/19 07:26:49;;;;;;;13.65;9.00;;;;;;;7.04;100.00;102896.31;5067733;28;20565;-66
2022/10/19 07:29:14;;;;;;;21.92;10.07;;;;;;;7.09;100.00;102909.50;5068269;28;20025;-61
2022/10/19 07:31:40;;;;;;;17.63;9.55;;;;;;;7.17;100.00;102915.72;5068583;28;20503;-67
2022/10/19 07:34:06;;;;;;;19.05;9.00;;;;;;;7.20;100.00;102909.66;5068300;28;20404;-67
2022/10/19 07:36:33;;;;;;;17.85;10.13;;;;;;;7.25;100.00;102910.59;5068802;28;20020;-64
2022/10/19 07:39:00;;;;;;;18.35;9.38;;;;;;;7.35;100.00;102915.97;5068094;28;20025;-65
2022/10/19 07:41:25;;;;;;;19.10;8.82;;;;;;;7.40;100.00;102916.88;5068035;28;20391;-65
2022/10/19 07:43:51;;;;;;;15.27;8.60;;;;;;;7.44;100.00;102916.97;5049332;28;20052;-65
2022/10/19 07:46:19;;;;;;;19.60;9.38;;;;;;;7.51;100.00;102917.94;5068038;28;20074;-66
2022/10/19 07:48:44;;;;;;;15.15;7.93;;;;;;;7.61;100.00;102923.28;5067445;28;20044;-67
2022/10/19 07:51:11;;;;;;;15.25;8.00;;;;;;;7.69;100.00;102921.63;5067164;28;20104;-65
2022/10/19 07:53:37;;;;;;;17.38;8.15;;;;;;;7.74;100.00;102922.59;5068430;28;20021;-65
2022/10/19 07:56:04;;;;;;;17.60;8.55;;;;;;;7.82;100.00;102912.16;5067678;28;20023;-65
2022/10/19 07:58:30;;;;;;;16.48;8.02;;;;;;;7.94;100.00;102912.28;5067402;28;20475;-65
2022/10/19 08:01:18;;;;;;;16.02;8.20;;;;;;;8.09;100.00;102906.31;5064129;28;20085;-66
2022/10/19 08:03:44;;;;;;;22.20;7.82;;;;;;;8.15;100.00;102909.84;5048472;28;20029;-67
2022/10/19 08:06:13;;;;;;;20.90;8.32;;;;;;;8.24;100.00;102899.44;5048133;28;20566;-65
2022/10/19 08:08:39;;;;;;;15.40;7.90;;;;;;;8.36;100.00;102901.28;5050287;28;20033;-65
2022/10/19 08:11:10;;;;;;;21.75;7.72;;;;;;;8.44;100.00;102893.50;5068995;28;20032;-61
2022/10/19 08:13:36;;;;;;;18.95;8.32;;;;;;;8.53;100.00;102898.81;5067983;28;20021;-64
2022/10/19 08:16:01;;;;;;;15.40;7.78;;;;;;;8.87;100.00;102897.31;5068124;28;20467;-65
2022/10/19 08:18:26;;;;;;;18.95;7.53;;;;;;;9.02;100.00;102893.91;5067927;28;20024;-68
2022/10/19 08:20:51;;;;;;;16.55;7.22;;;;;;;9.12;100.00;102889.59;5066996;28;20029;-62
2022/10/19 08:23:17;;;;;;;16.60;7.25;;;;;;;9.30;100.00;102900.19;5049552;28;20035;-67
2022/10/19 08:25:42;;;;;;;20.58;6.93;;;;;;;9.35;100.00;102892.31;5046810;28;20110;-65
2022/10/19 08:28:07;;;;;;;13.82;5.68;;;;;;;9.25;100.00;102891.41;5045892;28;20479;-68
2022/10/19 08:30:36;;;;;;;13.75;5.93;;;;;;;9.27;100.00;102880.91;5046664;28;20711;-67
2022/10/19 08:33:03;;;;;;;21.67;6.90;;;;;;;9.31;100.00;102870.41;5065643;28;20020;-62
2022/10/19 08:35:29;;;;;;;16.23;5.70;;;;;;;9.43;100.00;102876.56;5066604;28;20033;-65
2022/10/19 08:37:55;;;;;;;15.80;5.57;;;;;;;9.52;100.00;102860.81;5065740;28;20056;-63
2022/10/19 08:40:23;;;;;;;17.58;5.35;;;;;;;9.58;100.00;102857.31;5065712;28;20056;-67
2022/10/19 08:43:01;;;;;;;12.38;4.75;;;;;;;9.72;100.00;102839.81;5065164;28;20123;-59
2022/10/19 08:45:32;;;;;;;14.43;5.05;;;;;;;9.80;100.00;102842.47;5065025;28;20020;-69
2022/10/19 08:47:58;;;;;;;10.18;4.47;;;;;;;9.88;100.00;102844.22;5046422;28;20020;-64
2022/10/19 08:50:36;;;;;;;13.70;4.55;;;;;;;9.94;100.00;102847.72;5047790;28;20134;-61
2022/10/19 08:53:26;;;;;;;12.60;4.60;;;;;;;10.07;100.00;102848.63;5047305;28;20372;-65
2022/10/19 08:56:24;;;;;;;21.80;4.93;;;;;;;10.14;100.00;102846.00;5047829;28;20024;-63
2022/10/19 08:59:20;;;;;;;14.80;4.20;;;;;;;10.21;100.00;102845.13;5063887;28;20025;-66
2022/10/19 09:01:50;;;;;;;12.07;3.83;;;;;;;10.34;100.00;102849.50;5064516;28;20055;-65
2022/10/19 09:04:21;;;;;;;11.50;3.97;;;;;;;10.44;100.00;102844.22;5046960;28;20017;-63
2022/10/19 09:07:10;;;;;;;10.98;4.03;;;;;;;10.46;100.00;102850.41;5046166;28;20029;-66
2022/10/19 09:09:44;;;;;;;9.98;3.67;;;;;;;10.65;100.00;102853.03;5063682;28;20036;-67
2022/10/19 09:12:13;;;;;;;9.73;3.50;;;;;;;10.70;100.00;102846.84;5047329;28;20029;-65
2022/10/19 09:15:00;;;;;;;10.48;3.50;;;;;;;10.75;100.00;102844.22;5047543;28;20013;-68
2022/10/19 09:17:26;;;;;;;10.57;3.45;;;;;;;10.93;100.00;102845.03;5045641;28;20025;-64
2022/10/19 09:19:52;;;;;;;8.00;2.80;;;;;;;11.03;100.00;102844.13;5047184;28;20028;-64
2022/10/19 09:22:31;;;;;;;7.93;2.75;;;;;;;11.11;100.00;102842.31;5064776;28;20095;-65
2022/10/19 09:24:58;;;;;;;;;;;;;;;11.20;100.00;102844.03;5046799;28;20455;-67
2022/10/19 09:27:25;;;;;;;8.55;2.72;;;;;;;11.29;100.00;102840.47;5046213;28;19917;-67
2022/10/19 09:29:58;;;;;;;7.40;2.45;;;;;;;11.28;100.00;102848.41;5064426;28;20028;-66
2022/10/19 09:32:30;;;;;;;7.72;2.33;;;;;;;11.50;100.00;102854.47;5047422;28;20925;-65
2022/10/19 09:34:59;;;;;;;10.13;2.17;;;;;;;11.52;100.00;102863.25;5047665;28;20264;-68
2022/10/19 09:37:25;;;;;;;7.30;2.30;;;;;;;11.62;100.00;102858.81;5047582;28;20029;-66
2022/10/19 09:39:51;;;;;;;8.88;2.15;;;;;;;11.66;100.00;102855.25;5046830;28;20520;-67
2022/10/19 09:42:23;;;;;;;10.52;2.17;;;;;;;11.71;100.00;102850.81;5045316;28;20028;-67
2022/10/19 09:44:50;;;;;;;8.88;2.28;;;;;;;11.85;100.00;102852.50;5065067;28;20115;-65
2022/10/19 09:47:36;;;;;;;9.05;1.92;;;;;;;12.06;100.00;102859.38;5046835;28;20032;-64
2022/10/19 09:50:07;;;;;;;5.63;1.85;;;;;;;12.22;100.00;102844.31;5064518;28;20686;-67
2022/10/19 09:52:38;;;;;;;5.80;1.55;;;;;;;12.21;100.00;102834.63;5065609;28;20020;-62
2022/10/19 09:55:16;;;;;;;6.28;1.38;;;;;;;12.30;100.00;102836.31;5065175;28;20070;-65
2022/10/19 09:57:47;;;;;;;3.17;1.40;;;;;;;12.25;100.00;102827.53;5062390;28;20132;-68
2022/10/19 10:00:24;;;;;;;4.55;1.73;;;;;;;12.29;100.00;102831.03;5065824;28;20024;-68
2022/10/19 10:02:54;;;;;;;7.75;1.88;;;;;;;12.29;100.00;102817.84;5065678;28;20036;-69
2022/10/19 10:05:30;;;;;;;4.60;1.55;;;;;;;12.37;100.00;102810.69;5066719;28;20045;-69
2022/10/19 10:07:55;;;;;;;4.53;1.40;;;;;;;12.32;100.00;102805.47;5048575;28;20117;-66
2022/10/19 10:10:24;;;;;;;6.13;1.50;;;;;;;12.29;100.00;102796.69;5047836;28;20105;-67
2022/10/19 10:12:50;;;;;;;6.97;1.60;;;;;;;12.37;100.00;102785.13;5025271;28;20079;-68
2022/10/19 10:15:20;;;;;;;10.20;2.22;;;;;;;12.44;100.00;102777.16;5050240;28;20056;-69
2022/10/19 10:17:46;;;;;;;6.53;1.52;;;;;;;12.45;100.00;102778.88;5050742;28;20059;-65
2022/10/19 10:20:23;;;;;;;4.55;1.50;;;;;;;12.33;100.00;102775.50;5032946;28;20108;-71
2022/10/19 10:23:03;;;;;;;9.32;1.40;;;;;;;12.51;100.00;102769.13;5068600;28;20387;-62
2022/10/19 10:25:31;;;;;;;5.32;1.42;;;;;;;12.42;100.00;102773.63;5069009;28;20027;-69
2022/10/19 10:28:27;;;;;;;2.97;1.30;;;;;;;12.45;100.00;102770.97;5069074;28;20135;-62
2022/10/19 10:31:03;;;;;;;9.73;1.40;;;;;;;12.52;100.00;102767.34;5058906;28;20037;-68
2022/10/19 10:33:29;;;;;;;5.68;1.83;;;;;;;12.55;100.00;102763.81;5030226;28;20078;-68
2022/10/19 10:36:00;;;;;;;5.18;1.35;;;;;;;12.60;100.00;102759.34;5043871;28;20368;-70
2022/10/19 10:38:27;;;;;;;11.13;1.60;;;;;;;12.58;100.00;102762.00;5068522;28;20037;-70
2022/10/19 10:40:59;;;;;;;5.90;1.48;;;;;;;12.61;100.00;102756.69;5049615;28;20108;-67
2022/10/19 10:43:35;;;;;;;6.38;1.65;;;;;;;12.84;100.00;102758.16;5067368;28;20024;-67
2022/10/19 10:46:06;;;;;;;8.90;1.77;;;;;;;13.09;100.00;102747.25;5022220;28;20108;-66
2022/10/19 10:48:40;;;;;;;6.47;1.40;;;;;;;13.08;100.00;102744.63;5066659;28;20020;-62
2022/10/19 10:51:17;;;;;;;6.90;1.52;;;;;;;13.07;100.00;102732.28;5050352;28;20453;-66
2022/10/19 10:53:43;;;;;;;6.22;1.80;;;;;;;13.18;100.00;102729.50;5067557;28;20028;-71
2022/10/19 10:56:29;;;;;;;7.05;1.45;;;;;;;13.14;100.00;102720.72;5067705;28;20017;-70
2022/10/19 10:59:00;;;;;;;8.25;1.63;;;;;;;13.19;99.29;102720.66;5066239;28;20028;-71
2022/10/19 11:01:35;;;;;;;4.70;1.80;;;;;;;13.29;99.91;102724.03;5068793;28;20599;-70
2022/10/19 11:04:09;;;;;;;7.57;1.85;;;;;;;13.65;100.00;102713.78;5051252;28;20082;-72
2022/10/19 11:06:40;;;;;;;2.92;1.70;;;;;;;13.92;99.53;102711.56;5051324;28;20037;-67
2022/10/19 11:09:24;;;;;;;6.15;1.88;;;;;;;13.90;97.17;102700.09;5051058;28;20043;-68
2022/10/19 11:11:54;;;;;;;7.20;2.00;;;;;;;13.85;96.79;102702.84;5066196;28;20051;-68
2022/10/19 11:14:38;;;;;;;5.75;1.90;;;;;;;13.73;97.74;102703.06;5051644;28;20024;-73
2022/10/19 11:17:06;;;;;;;5.85;2.17;;;;;;;13.86;98.06;102701.06;5068178;28;20052;-63
2022/10/19 11:19:39;;;;;;;4.93;1.60;;;;;;;14.01;97.77;102697.28;5051130;28;20478;-63
2022/10/19 11:22:33;;;;;;;5.70;1.50;;;;;;;13.98;96.30;102689.38;5067668;28;20074;-62